createdAt,value
2023-02-28T00:01:23.806Z,-0.60
2023-02-28T00:03:50.871Z,-0.60
2023-02-28T00:06:18.171Z,-0.60
2023-02-28T00:08:44.963Z,-0.60
2023-02-28T00:11:14.063Z,-0.60
2023-02-28T00:13:43.516Z,-0.60
2023-02-28T00:16:14.176Z,-0.60
2023-02-28T00:18:41.596Z,-0.50
2023-02-28T00:21:08.686Z,-0.50
2023-02-28T00:23:36.399Z,-0.50
2023-02-28T00:26:03.220Z,-0.60
2023-02-28T00:28:30.538Z,-0.60
2023-02-28T00:30:58.624Z,-0.60
2023-02-28T00:33:25.451Z,-0.60
2023-02-28T00:35:52.239Z,-0.60
2023-02-28T00:38:19.127Z,-0.60
2023-02-28T00:40:45.886Z,-0.60
2023-02-28T00:43:12.748Z,-0.70
2023-02-28T00:45:39.464Z,-0.70
2023-02-28T00:48:07.189Z,-0.70
2023-02-28T00:50:34.010Z,-0.90
2023-02-28T00:53:00.809Z,-0.90
2023-02-28T00:55:27.493Z,-1.00
2023-02-28T00:57:54.230Z,-0.90
2023-02-28T01:00:21.178Z,-0.90
2023-02-28T01:02:47.953Z,-1.00
2023-02-28T01:05:14.764Z,-1.00
2023-02-28T01:07:41.483Z,-1.00
2023-02-28T01:10:09.157Z,-1.00
2023-02-28T01:12:35.912Z,-1.00
2023-02-28T01:15:02.695Z,-1.00
2023-02-28T01:17:29.412Z,-1.00
2023-02-28T01:19:57.137Z,-1.10
2023-02-28T01:22:23.911Z,-1.10
2023-02-28T01:24:50.676Z,-1.10
2023-02-28T01:27:17.412Z,-1.00
2023-02-28T01:29:44.245Z,-1.10
2023-02-28T01:32:11.090Z,-1.00
2023-02-28T01:34:38.078Z,-1.00
2023-02-28T01:37:05.315Z,-1.00
2023-02-28T01:39:32.041Z,-1.00
2023-02-28T01:41:58.725Z,-1.00
2023-02-28T01:45:20.034Z,-1.10
2023-02-28T01:47:51.145Z,-1.00
2023-02-28T01:50:26.149Z,-1.10
2023-02-28T01:52:55.578Z,-1.10
2023-02-28T01:55:23.479Z,-1.20
2023-02-28T01:57:56.018Z,-1.20
2023-02-28T02:00:27.778Z,-1.20
2023-02-28T02:02:59.972Z,-1.20
2023-02-28T02:05:32.086Z,-1.30
2023-02-28T02:08:03.741Z,-1.20
2023-02-28T02:10:35.754Z,-1.20
2023-02-28T02:13:09.150Z,-1.20
2023-02-28T02:15:44.608Z,-1.30
2023-02-28T02:18:30.485Z,-1.30
2023-02-28T02:21:15.924Z,-1.40
2023-02-28T02:24:07.790Z,-1.30
2023-02-28T02:26:59.310Z,-1.30
2023-02-28T02:29:53.284Z,-1.30
2023-02-28T02:32:57.815Z,-1.40
2023-02-28T02:35:42.102Z,-1.40
2023-02-28T02:38:27.160Z,-1.40
2023-02-28T02:41:15.187Z,-1.40
2023-02-28T02:43:47.482Z,-1.40
2023-02-28T02:46:27.483Z,-1.30
2023-02-28T02:48:57.488Z,-1.30
2023-02-28T02:51:25.745Z,-1.30
2023-02-28T02:53:57.624Z,-1.30
2023-02-28T02:56:28.611Z,-1.30
2023-02-28T02:59:00.989Z,-1.30
2023-02-28T03:01:31.778Z,-1.30
2023-02-28T03:04:02.079Z,-1.20
2023-02-28T03:06:29.160Z,-1.20
2023-02-28T03:08:55.942Z,-1.20
2023-02-28T03:11:22.975Z,-1.20
2023-02-28T03:14:05.208Z,-1.20
2023-02-28T03:16:50.765Z,-1.20
2023-02-28T03:19:53.276Z,-1.20
2023-02-28T03:22:53.569Z,-1.20
2023-02-28T03:25:57.053Z,-1.10
2023-02-28T03:28:48.798Z,-1.10
2023-02-28T03:31:22.094Z,-1.10
2023-02-28T03:33:55.992Z,-1.10
2023-02-28T03:36:28.126Z,-1.00
2023-02-28T03:39:03.735Z,-1.10
2023-02-28T03:41:51.605Z,-1.10
2023-02-28T03:44:21.892Z,-1.10
2023-02-28T03:47:03.262Z,-1.10
2023-02-28T03:49:39.488Z,-1.10
2023-02-28T03:52:08.388Z,-1.20
2023-02-28T03:54:43.841Z,-1.10
2023-02-28T03:57:28.163Z,-1.10
2023-02-28T04:00:05.341Z,-1.10
2023-02-28T04:02:32.646Z,-1.00
2023-02-28T04:05:00.592Z,-1.10
2023-02-28T04:07:38.004Z,-1.10
2023-02-28T04:10:05.773Z,-1.10
2023-02-28T04:12:32.632Z,-1.00
2023-02-28T04:14:59.325Z,-1.00
2023-02-28T04:17:26.065Z,-1.00
2023-02-28T04:19:52.787Z,-1.00
2023-02-28T04:22:19.650Z,-1.10
2023-02-28T04:24:46.494Z,-1.10
2023-02-28T04:27:13.234Z,-1.10
2023-02-28T04:29:39.915Z,-1.10
2023-02-28T04:32:06.928Z,-1.10
2023-02-28T04:34:33.967Z,-1.10
2023-02-28T04:37:17.056Z,-1.10
2023-02-28T04:39:44.412Z,-1.10
2023-02-28T04:42:11.802Z,-1.00
2023-02-28T04:44:38.632Z,-1.00
2023-02-28T04:47:05.669Z,-1.00
2023-02-28T04:49:32.516Z,-1.00
2023-02-28T04:51:59.277Z,-1.10
2023-02-28T04:54:26.061Z,-1.10
2023-02-28T04:56:52.753Z,-1.10
2023-02-28T04:59:19.520Z,-1.10
2023-02-28T05:01:50.412Z,-1.10
2023-02-28T05:04:17.356Z,-1.00
2023-02-28T05:06:44.285Z,-1.00
2023-02-28T05:09:12.688Z,-1.10
2023-02-28T05:11:40.687Z,-1.00
2023-02-28T05:14:15.256Z,-1.00
2023-02-28T05:16:42.102Z,-1.10
2023-02-28T05:19:09.055Z,-1.00
2023-02-28T05:21:41.744Z,-1.00
2023-02-28T05:24:12.021Z,-0.90
2023-02-28T05:26:43.654Z,-1.00
2023-02-28T05:29:11.529Z,-0.90
2023-02-28T05:31:38.518Z,-0.90
2023-02-28T05:34:05.706Z,-0.80
2023-02-28T05:36:32.801Z,-0.90
2023-02-28T05:38:59.743Z,-0.90
2023-02-28T05:41:27.466Z,-0.90
2023-02-28T05:43:54.507Z,-0.90
2023-02-28T05:46:21.215Z,-0.90
2023-02-28T05:48:49.071Z,-0.90
2023-02-28T05:51:15.896Z,-1.00
2023-02-28T05:53:42.586Z,-1.10
2023-02-28T05:56:09.281Z,-1.10
2023-02-28T05:58:36.068Z,-1.10
2023-02-28T06:01:24.780Z,-1.00
2023-02-28T06:03:51.659Z,-1.00
2023-02-28T06:06:18.392Z,-1.00
2023-02-28T06:08:45.750Z,-0.90
2023-02-28T06:11:12.899Z,-1.00
2023-02-28T06:13:39.860Z,-1.00
2023-02-28T06:16:06.786Z,-0.90
2023-02-28T06:18:33.782Z,-1.00
2023-02-28T06:21:00.581Z,-1.00
2023-02-28T06:23:27.337Z,-1.00
2023-02-28T06:25:54.268Z,-1.00
2023-02-28T06:28:21.049Z,-1.00
2023-02-28T06:30:47.960Z,-1.00
2023-02-28T06:33:14.796Z,-1.00
2023-02-28T06:35:45.292Z,-1.00
2023-02-28T06:38:12.103Z,-1.10
2023-02-28T06:40:38.831Z,-1.10
2023-02-28T06:43:05.560Z,-0.90
2023-02-28T06:45:32.270Z,-1.00
2023-02-28T06:47:59.512Z,-1.00
2023-02-28T06:50:26.322Z,-1.10
2023-02-28T06:52:55.020Z,-1.10
2023-02-28T06:55:21.846Z,-1.00
2023-02-28T06:57:48.832Z,-0.90
2023-02-28T07:00:16.166Z,-0.90
2023-02-28T07:02:42.955Z,-0.90
2023-02-28T07:05:09.869Z,-1.00
2023-02-28T07:07:39.108Z,-1.10
2023-02-28T07:10:06.372Z,-1.20
2023-02-28T07:12:33.612Z,-1.10
2023-02-28T07:15:00.290Z,-1.10
2023-02-28T07:17:27.007Z,-1.10
2023-02-28T07:19:53.757Z,-1.00
2023-02-28T07:22:20.524Z,-1.00
2023-02-28T07:24:47.413Z,-0.90
2023-02-28T07:27:26.618Z,-0.80
2023-02-28T07:29:54.061Z,-0.80
2023-02-28T07:32:21.167Z,-0.80
2023-02-28T07:34:48.018Z,-0.80
2023-02-28T07:37:15.450Z,-0.80
2023-02-28T07:39:44.900Z,-0.70
2023-02-28T07:42:12.952Z,-0.80
2023-02-28T07:44:41.427Z,-0.70
2023-02-28T07:47:09.721Z,-0.90
2023-02-28T07:49:37.362Z,-1.00
2023-02-28T07:52:08.214Z,-0.90
2023-02-28T07:54:35.310Z,-0.80
2023-02-28T07:57:02.018Z,-0.80
2023-02-28T07:59:31.232Z,-0.80
2023-02-28T08:02:00.239Z,-0.70
2023-02-28T08:04:27.248Z,-0.70
2023-02-28T08:06:54.080Z,-0.70
2023-02-28T08:09:21.088Z,-0.60
2023-02-28T08:11:47.787Z,-0.70
2023-02-28T08:14:14.784Z,-0.80
2023-02-28T08:16:41.564Z,-0.70
2023-02-28T08:19:08.278Z,-0.60
2023-02-28T08:21:35.064Z,-0.40
2023-02-28T08:24:01.917Z,-0.40
2023-02-28T08:26:28.705Z,-0.30
2023-02-28T08:28:57.049Z,-0.30
2023-02-28T08:31:24.333Z,-0.20
2023-02-28T08:33:52.897Z,-0.20
2023-02-28T08:36:20.419Z,-0.40
2023-02-28T08:38:47.199Z,-0.30
2023-02-28T08:41:14.327Z,-0.20
2023-02-28T08:43:42.662Z,0.00
2023-02-28T08:46:14.904Z,-0.10
2023-02-28T08:48:42.516Z,-0.10
2023-02-28T08:51:12.612Z,-0.10
2023-02-28T08:53:40.617Z,0.00
2023-02-28T08:56:15.203Z,-0.30
2023-02-28T08:58:42.067Z,-0.40
2023-02-28T09:01:11.978Z,-0.40
2023-02-28T09:03:39.511Z,-0.40
2023-02-28T09:06:06.284Z,-0.40
2023-02-28T09:08:33.050Z,-0.30
2023-02-28T09:11:02.268Z,-0.10
2023-02-28T09:13:29.680Z,0.00
2023-02-28T09:16:02.372Z,0.20
2023-02-28T09:18:29.857Z,0.20
2023-02-28T09:20:57.332Z,0.20
2023-02-28T09:23:24.128Z,0.30
2023-02-28T09:25:55.595Z,0.60
2023-02-28T09:28:23.754Z,0.60
2023-02-28T09:30:53.084Z,0.80
2023-02-28T09:33:23.281Z,1.10
2023-02-28T09:35:50.950Z,1.10
2023-02-28T09:38:18.651Z,1.10
2023-02-28T09:40:55.032Z,1.40
2023-02-28T09:43:26.291Z,1.20
2023-02-28T09:46:18.476Z,1.10
2023-02-28T09:48:49.250Z,1.00
2023-02-28T09:51:38.905Z,1.00
2023-02-28T09:54:06.530Z,0.90
2023-02-28T09:56:39.526Z,1.10
2023-02-28T09:59:25.066Z,1.20
2023-02-28T10:01:54.644Z,1.50
2023-02-28T10:04:42.082Z,1.40
2023-02-28T10:07:26.937Z,1.40
2023-02-28T10:09:57.934Z,1.70
2023-02-28T10:12:27.148Z,1.40
2023-02-28T10:14:56.110Z,1.40
2023-02-28T10:17:26.497Z,1.40
2023-02-28T10:20:12.535Z,1.40
2023-02-28T10:23:01.747Z,1.10
2023-02-28T10:25:30.453Z,1.20
2023-02-28T10:28:14.379Z,1.40
2023-02-28T10:30:45.538Z,1.70
2023-02-28T10:33:24.558Z,1.20
2023-02-28T10:35:52.353Z,1.40
2023-02-28T10:38:27.013Z,1.70
2023-02-28T10:41:12.045Z,1.80
2023-02-28T10:43:40.973Z,2.30
2023-02-28T10:46:10.749Z,2.80
2023-02-28T10:48:58.108Z,2.90
2023-02-28T10:51:25.132Z,2.60
2023-02-28T10:54:03.352Z,2.50
2023-02-28T10:56:31.386Z,2.60
2023-02-28T10:59:24.996Z,2.30
2023-02-28T11:01:53.857Z,2.00
2023-02-28T11:04:40.503Z,2.00
2023-02-28T11:07:27.857Z,1.70
2023-02-28T11:09:59.182Z,1.60
2023-02-28T11:12:29.330Z,1.80
2023-02-28T11:15:00.960Z,1.80
2023-02-28T11:17:30.449Z,2.00
2023-02-28T11:20:15.005Z,2.10
2023-02-28T11:22:45.833Z,2.00
2023-02-28T11:25:27.151Z,2.20
2023-02-28T11:27:57.146Z,2.50
2023-02-28T11:30:34.375Z,2.40
2023-02-28T11:33:09.226Z,2.20
2023-02-28T11:35:40.180Z,2.30
2023-02-28T11:38:14.017Z,2.50
2023-02-28T11:40:50.351Z,2.40
2023-02-28T11:43:47.533Z,2.50
2023-02-28T11:46:39.296Z,2.60
2023-02-28T11:49:24.477Z,2.80
2023-02-28T11:51:57.991Z,2.70
2023-02-28T11:54:59.606Z,2.70
2023-02-28T11:58:12.321Z,2.60
2023-02-28T12:00:53.329Z,2.60
2023-02-28T12:03:35.144Z,2.50
2023-02-28T12:06:16.681Z,2.60
2023-02-28T12:09:13.620Z,2.60
2023-02-28T12:12:24.486Z,2.60
2023-02-28T12:15:17.509Z,2.70
2023-02-28T12:18:02.736Z,2.80
2023-02-28T12:20:35.520Z,2.90
2023-02-28T12:23:34.531Z,3.00
2023-02-28T12:26:28.394Z,3.00
2023-02-28T12:29:05.077Z,3.10
2023-02-28T12:31:40.661Z,3.10
2023-02-28T12:34:13.223Z,3.10
2023-02-28T12:36:43.860Z,3.00
2023-02-28T12:39:23.946Z,3.10
2023-02-28T12:42:08.826Z,3.20
2023-02-28T12:44:46.089Z,3.20
2023-02-28T12:47:18.036Z,3.40
2023-02-28T12:49:50.751Z,3.40
2023-02-28T12:52:24.832Z,3.40
2023-02-28T12:54:59.557Z,3.30
2023-02-28T12:57:39.477Z,3.30
2023-02-28T13:00:13.156Z,3.20
2023-02-28T13:02:51.669Z,3.30
2023-02-28T13:05:37.283Z,3.50
2023-02-28T13:08:18.903Z,3.50
2023-02-28T13:10:48.584Z,3.60
2023-02-28T13:13:18.338Z,3.70
2023-02-28T13:16:08.860Z,3.60
2023-02-28T13:18:42.841Z,3.60
2023-02-28T13:21:24.845Z,3.60
2023-02-28T13:23:57.735Z,3.70
2023-02-28T13:27:04.737Z,3.90
2023-02-28T13:29:43.481Z,3.90
2023-02-28T13:32:10.266Z,3.90
2023-02-28T13:34:40.248Z,3.90
2023-02-28T13:37:19.168Z,3.90
2023-02-28T13:39:46.956Z,3.80
2023-02-28T13:42:32.216Z,3.90
2023-02-28T13:45:04.851Z,4.10
2023-02-28T13:47:36.970Z,4.20
2023-02-28T13:50:25.107Z,4.20
2023-02-28T13:53:12.773Z,4.00
2023-02-28T13:56:05.032Z,4.00
2023-02-28T13:58:40.420Z,4.10
2023-02-28T14:01:22.896Z,4.10
2023-02-28T14:04:21.951Z,4.20
2023-02-28T14:06:55.304Z,4.00
2023-02-28T14:09:29.627Z,3.90
2023-02-28T14:11:56.887Z,4.00
2023-02-28T14:14:35.874Z,3.80
2023-02-28T14:17:15.105Z,3.80
2023-02-28T14:19:47.262Z,3.70
2023-02-28T14:22:42.312Z,3.80
2023-02-28T14:25:17.880Z,3.90
2023-02-28T14:28:28.700Z,3.80
2023-02-28T14:31:13.508Z,3.80
2023-02-28T14:34:10.984Z,3.80
2023-02-28T14:36:40.358Z,3.80
2023-02-28T14:39:12.737Z,3.80
2023-02-28T14:41:42.024Z,3.90
2023-02-28T14:44:21.437Z,3.90
2023-02-28T14:46:53.109Z,3.90
2023-02-28T14:49:26.079Z,3.90
2023-02-28T14:52:23.247Z,3.80
2023-02-28T14:54:59.540Z,3.80
2023-02-28T14:57:26.259Z,3.80
2023-02-28T15:00:01.972Z,3.80
2023-02-28T15:02:32.431Z,3.90
2023-02-28T15:05:02.211Z,3.90
2023-02-28T15:07:32.297Z,3.80
2023-02-28T15:10:21.666Z,3.80
2023-02-28T15:12:54.574Z,3.80
2023-02-28T15:15:28.164Z,3.80
2023-02-28T15:18:06.317Z,3.80
2023-02-28T15:20:34.184Z,3.90
2023-02-28T15:23:01.908Z,3.80
2023-02-28T15:25:28.798Z,3.90
2023-02-28T15:27:57.259Z,3.90
2023-02-28T15:30:30.080Z,3.80
2023-02-28T15:33:22.124Z,3.80
2023-02-28T15:35:49.327Z,3.80
2023-02-28T15:38:22.497Z,3.90
2023-02-28T15:40:58.107Z,3.90
2023-02-28T15:43:28.924Z,3.90
2023-02-28T15:46:11.820Z,3.80
2023-02-28T15:48:58.907Z,3.80
2023-02-28T15:51:38.292Z,3.70
2023-02-28T15:54:13.553Z,3.70
2023-02-28T15:56:45.448Z,3.70
2023-02-28T15:59:43.711Z,3.70
2023-02-28T16:02:10.757Z,3.70
2023-02-28T16:04:38.536Z,3.80
2023-02-28T16:07:07.420Z,3.80
2023-02-28T16:09:35.347Z,3.80
2023-02-28T16:12:04.082Z,3.70
2023-02-28T16:14:31.818Z,3.70
2023-02-28T16:17:06.633Z,3.70
2023-02-28T16:19:34.834Z,3.70
2023-02-28T16:22:02.078Z,3.60
2023-02-28T16:24:28.818Z,3.50
2023-02-28T16:26:57.885Z,3.50
2023-02-28T16:29:32.136Z,3.50
2023-02-28T16:31:59.761Z,3.60
2023-02-28T16:34:26.646Z,3.50
2023-02-28T16:36:53.885Z,3.50
2023-02-28T16:39:23.603Z,3.50
2023-02-28T16:41:52.293Z,3.50
2023-02-28T16:44:31.449Z,3.50
2023-02-28T16:47:00.332Z,3.40
2023-02-28T16:49:27.636Z,3.30
2023-02-28T16:51:54.843Z,3.30
2023-02-28T16:54:21.680Z,3.30
2023-02-28T16:56:50.095Z,3.20
2023-02-28T16:59:22.421Z,3.20
2023-02-28T17:01:50.235Z,3.10
2023-02-28T17:04:17.465Z,3.10
2023-02-28T17:06:44.513Z,3.10
2023-02-28T17:09:18.675Z,3.10
2023-02-28T17:11:45.675Z,3.00
2023-02-28T17:14:12.495Z,3.00
2023-02-28T17:16:43.204Z,3.10
2023-02-28T17:19:16.142Z,3.00
2023-02-28T17:21:43.661Z,3.00
2023-02-28T17:24:16.609Z,3.00
2023-02-28T17:26:46.112Z,2.90
2023-02-28T17:29:17.918Z,2.90
2023-02-28T17:31:44.766Z,2.80
2023-02-28T17:34:11.673Z,2.80
2023-02-28T17:36:38.910Z,2.80
2023-02-28T17:39:11.032Z,2.70
2023-02-28T17:41:37.727Z,2.70
2023-02-28T17:44:04.621Z,2.70
2023-02-28T17:46:31.903Z,2.70
2023-02-28T17:48:59.023Z,2.60
2023-02-28T17:51:25.998Z,2.60
2023-02-28T17:53:53.026Z,2.60
2023-02-28T17:56:27.225Z,2.50
2023-02-28T17:58:56.208Z,2.50
2023-02-28T18:01:25.356Z,2.40
2023-02-28T18:03:52.076Z,2.40
2023-02-28T18:06:26.143Z,2.50
2023-02-28T18:08:53.183Z,2.40
2023-02-28T18:11:21.744Z,2.40
2023-02-28T18:13:51.443Z,2.40
2023-02-28T18:16:19.409Z,2.40
2023-02-28T18:18:46.462Z,2.30
2023-02-28T18:21:15.201Z,2.20
2023-02-28T18:23:47.838Z,2.10
2023-02-28T18:26:19.882Z,2.10
2023-02-28T18:28:47.548Z,2.10
2023-02-28T18:31:18.058Z,2.00
2023-02-28T18:33:48.016Z,2.00
2023-02-28T18:36:14.826Z,1.90
2023-02-28T18:38:42.247Z,1.80
2023-02-28T18:41:09.145Z,1.80
2023-02-28T18:43:40.462Z,1.80
2023-02-28T18:46:13.174Z,1.70
2023-02-28T18:48:40.119Z,1.70
2023-02-28T18:51:08.199Z,1.70
2023-02-28T18:53:37.299Z,1.60
2023-02-28T18:56:05.267Z,1.60
2023-02-28T18:58:33.518Z,1.60
2023-02-28T19:01:04.964Z,1.60
2023-02-28T19:03:31.898Z,1.70
2023-02-28T19:06:00.232Z,1.70
2023-02-28T19:08:27.298Z,1.70
2023-02-28T19:10:54.025Z,1.70
2023-02-28T19:13:20.921Z,1.70
2023-02-28T19:15:48.205Z,1.70
2023-02-28T19:18:15.412Z,1.80
2023-02-28T19:20:42.444Z,1.80
2023-02-28T19:23:11.777Z,1.70
2023-02-28T19:25:42.692Z,1.70
2023-02-28T19:28:09.745Z,1.60
2023-02-28T19:30:36.436Z,1.50
2023-02-28T19:33:03.202Z,1.50
2023-02-28T19:35:30.173Z,1.50
2023-02-28T19:37:58.930Z,1.50
2023-02-28T19:40:26.447Z,1.40
2023-02-28T19:42:53.236Z,1.40
2023-02-28T19:45:20.002Z,1.40
2023-02-28T19:47:46.694Z,1.30
2023-02-28T19:50:13.595Z,1.30
2023-02-28T19:55:12.165Z,1.30
2023-02-28T19:57:38.855Z,1.30
2023-02-28T20:00:06.236Z,1.30
2023-02-28T20:02:33.038Z,1.30
2023-02-28T20:05:01.370Z,1.30
2023-02-28T20:07:28.436Z,1.30
2023-02-28T20:09:55.222Z,1.20
2023-02-28T20:12:24.444Z,1.20
2023-02-28T20:14:52.200Z,1.20
2023-02-28T20:17:19.503Z,1.10
2023-02-28T20:19:46.485Z,1.20
2023-02-28T20:22:13.315Z,1.10
2023-02-28T20:24:40.092Z,1.10
2023-02-28T20:27:07.079Z,1.10
2023-02-28T20:29:35.368Z,1.20
2023-02-28T20:32:02.301Z,1.10
2023-02-28T20:34:29.192Z,1.20
2023-02-28T20:36:59.721Z,1.20
2023-02-28T20:39:26.571Z,1.20
2023-02-28T20:41:53.322Z,1.10
2023-02-28T20:44:20.122Z,1.10
2023-02-28T20:46:46.992Z,1.10
2023-02-28T20:49:15.157Z,1.20
2023-02-28T20:51:42.332Z,1.20
2023-02-28T20:54:13.966Z,1.20
2023-02-28T20:56:40.753Z,1.20
2023-02-28T20:59:10.177Z,1.20
2023-02-28T21:01:37.106Z,1.20
2023-02-28T21:04:06.163Z,1.20
2023-02-28T21:06:36.695Z,1.20
2023-02-28T21:09:06.497Z,1.20
2023-02-28T21:11:35.436Z,1.10
2023-02-28T21:14:04.857Z,1.10
2023-02-28T21:16:32.679Z,1.10
2023-02-28T21:19:05.970Z,1.20
2023-02-28T21:21:38.356Z,1.20
2023-02-28T21:24:06.306Z,1.20
2023-02-28T21:26:33.409Z,1.20
2023-02-28T21:29:02.327Z,1.30
2023-02-28T21:31:33.843Z,1.30
2023-02-28T21:34:02.736Z,1.30
2023-02-28T21:36:35.038Z,1.30
2023-02-28T21:39:13.261Z,1.30
2023-02-28T21:41:40.266Z,1.30
2023-02-28T21:44:07.253Z,1.40
2023-02-28T21:46:34.474Z,1.40
2023-02-28T21:49:01.536Z,1.40
2023-02-28T21:51:33.825Z,1.50
2023-02-28T21:54:01.019Z,1.40
2023-02-28T21:56:32.564Z,1.50
2023-02-28T21:59:02.574Z,1.50
2023-02-28T22:01:38.055Z,1.50
2023-02-28T22:04:07.610Z,1.60
2023-02-28T22:06:37.202Z,1.50
2023-02-28T22:09:06.192Z,1.50
2023-02-28T22:11:34.351Z,1.50
2023-02-28T22:14:01.322Z,1.40
2023-02-28T22:16:33.280Z,1.30
2023-02-28T22:19:06.500Z,1.30
2023-02-28T22:21:34.682Z,1.30
2023-02-28T22:24:02.368Z,1.40
2023-02-28T22:26:29.654Z,1.40
2023-02-28T22:28:57.087Z,1.30
2023-02-28T22:31:27.696Z,1.40
2023-02-28T22:33:57.745Z,1.40
2023-02-28T22:36:24.918Z,1.40
2023-02-28T22:38:52.772Z,1.40
2023-02-28T22:41:22.335Z,1.40
2023-02-28T22:43:54.839Z,1.50
2023-02-28T22:46:23.002Z,1.60
2023-02-28T22:48:50.547Z,1.50
2023-02-28T22:51:23.966Z,1.50
2023-02-28T22:53:52.141Z,1.60
2023-02-28T22:56:21.033Z,1.60
2023-02-28T22:58:52.383Z,1.60
2023-02-28T23:01:22.027Z,1.60
2023-02-28T23:03:49.261Z,1.60
2023-02-28T23:06:25.369Z,1.50
2023-02-28T23:08:54.892Z,1.50
2023-02-28T23:11:25.245Z,1.60
2023-02-28T23:13:58.839Z,1.60
2023-02-28T23:16:26.812Z,1.60
2023-02-28T23:18:54.085Z,1.60
2023-02-28T23:21:21.067Z,1.60
2023-02-28T23:23:47.802Z,1.60
2023-02-28T23:26:14.511Z,1.60
2023-02-28T23:28:41.323Z,1.60
2023-02-28T23:31:08.318Z,1.60
2023-02-28T23:33:35.113Z,1.60
2023-02-28T23:36:11.744Z,1.50
2023-02-28T23:38:40.012Z,1.50
2023-02-28T23:41:11.924Z,1.60
2023-02-28T23:43:40.613Z,1.60
2023-02-28T23:46:09.316Z,1.60
2023-02-28T23:48:36.543Z,1.60
2023-02-28T23:51:12.214Z,1.60
2023-02-28T23:53:41.501Z,1.60
2023-02-28T23:56:10.788Z,1.60
2023-02-28T23:58:37.778Z,1.60
